Time;durP1;ratioP1;P1;durP2;ratioP2;P2;SDS_P1;SDS_P2;PMS_P1;PMS_P2;Temp;Humidity;BMP_temperature;BMP_pressure;BME280_temperature;BME280_humidity;BME280_pressure;Samples;Min_cycle;Max_cycle;Signal;HPM_P1;HPM_P2
2022/12/14 00:00:47;;;;;;;18.20;12.35;;;-2.00;65.00;;;;;;5092433;28;20177;-70
2022/12/14 00:03:15;;;;;;;16.60;11.27;;;-1.90;65.20;;;;;;5092398;28;20525;-70
2022/12/14 00:05:43;;;;;;;21.48;11.63;;;-1.90;64.40;;;;;;5092957;28;20239;-69
2022/12/14 00:08:11;;;;;;;16.88;11.95;;;-2.00;64.70;;;;;;5113068;28;20196;-70
2022/12/14 00:10:39;;;;;;;15.70;11.05;;;-2.00;64.90;;;;;;5111533;28;20524;-70
2022/12/14 00:13:08;;;;;;;14.23;9.52;;;-2.00;65.20;;;;;;5092691;28;20220;-69
2022/12/14 00:15:39;;;;;;;20.58;13.00;;;-2.10;65.10;;;;;;5092709;28;20192;-69
2022/12/14 00:18:06;;;;;;;18.25;11.88;;;-2.20;65.10;;;;;;5092504;28;20204;-70
2022/12/14 00:20:34;;;;;;;16.88;11.40;;;-2.30;66.00;;;;;;5098499;28;20678;-70
2022/12/14 00:23:01;;;;;;;19.40;11.35;;;-2.30;66.60;;;;;;5112648;28;20233;-70
2022/12/14 00:25:27;;;;;;;22.30;11.05;;;-2.30;66.60;;;;;;5106555;28;20240;-70
2022/12/14 00:27:55;;;;;;;18.10;11.02;;;-2.30;66.60;;;;;;5092601;28;20194;-70
2022/12/14 00:30:22;;;;;;;14.57;10.90;;;-2.30;67.30;;;;;;5096466;28;20198;-71
2022/12/14 00:32:50;;;;;;;16.80;10.32;;;-2.30;67.30;;;;;;5112911;28;20573;-70
2022/12/14 00:35:18;;;;;;;18.20;11.88;;;-2.40;67.50;;;;;;5109541;28;20577;-71
2022/12/14 00:37:45;;;;;;;20.48;11.27;;;-2.40;67.70;;;;;;5092337;28;20189;-70
2022/12/14 00:40:13;;;;;;;16.95;10.48;;;-2.30;68.00;;;;;;5092193;28;20220;-70
2022/12/14 00:42:40;;;;;;;17.40;10.98;;;-2.30;68.00;;;;;;5102271;28;20258;-70
2022/12/14 00:45:08;;;;;;;18.67;11.70;;;-2.30;68.20;;;;;;5091754;28;20577;-70
2022/12/14 00:47:36;;;;;;;20.35;13.32;;;-2.30;67.90;;;;;;5091736;28;20196;-71
2022/12/14 00:50:05;;;;;;;21.27;12.00;;;-2.20;68.10;;;;;;5094572;28;20189;-70
2022/12/14 00:52:32;;;;;;;15.30;10.45;;;-2.30;67.30;;;;;;5095644;28;20262;-70
2022/12/14 00:54:59;;;;;;;17.35;11.45;;;-2.30;67.60;;;;;;5095659;28;20189;-71
2022/12/14 00:57:28;;;;;;;20.13;11.45;;;-2.30;67.60;;;;;;5109696;28;20188;-70
2022/12/14 00:59:56;;;;;;;17.00;10.85;;;-2.20;67.50;;;;;;5103468;28;20639;-70
2022/12/14 01:02:23;;;;;;;18.30;10.82;;;-2.30;67.70;;;;;;5095240;28;20192;-70
2022/12/14 01:04:51;;;;;;;17.35;11.55;;;-2.30;67.70;;;;;;5105344;28;20228;-71
2022/12/14 01:07:20;;;;;;;18.33;11.45;;;-2.20;67.90;;;;;;5115490;28;20185;-71
2022/12/14 01:09:47;;;;;;;17.45;10.68;;;-2.20;68.00;;;;;;5105460;28;20185;-71
2022/12/14 01:12:14;;;;;;;18.90;12.55;;;-2.10;68.10;;;;;;5095006;28;20545;-70
2022/12/14 01:14:41;;;;;;;20.80;12.15;;;-2.10;68.10;;;;;;5104793;28;20618;-70
2022/12/14 01:17:08;;;;;;;18.50;11.48;;;-2.00;68.40;;;;;;5115526;28;20199;-70
2022/12/14 01:19:36;;;;;;;17.05;11.93;;;-2.00;68.40;;;;;;5106963;28;20185;-70
2022/12/14 01:22:03;;;;;;;21.42;12.00;;;-2.00;68.00;;;;;;5095064;28;20181;-70
2022/12/14 01:24:31;;;;;;;19.15;12.30;;;-2.00;68.10;;;;;;5101659;28;20413;-70
2022/12/14 01:26:59;;;;;;;21.85;12.38;;;-2.00;68.20;;;;;;5115379;28;20211;-70
2022/12/14 01:29:26;;;;;;;18.60;11.93;;;-2.00;68.70;;;;;;5108761;28;20225;-70
2022/12/14 01:31:53;;;;;;;18.50;11.52;;;-2.00;68.80;;;;;;5094704;28;20189;-70
2022/12/14 01:34:20;;;;;;;18.55;12.10;;;-1.90;68.80;;;;;;5099233;28;20832;-70
2022/12/14 01:36:47;;;;;;;16.30;11.60;;;-1.90;68.80;;;;;;5115031;28;20658;-70
2022/12/14 01:39:16;;;;;;;15.80;12.02;;;-1.80;68.50;;;;;;5102778;28;20632;-70
2022/12/14 01:41:48;;;;;;;19.83;12.80;;;-1.80;68.70;;;;;;5101720;28;20184;-70
2022/12/14 01:44:50;;;;;;;21.10;11.55;;;-1.80;68.90;;;;;;5114871;28;20238;-70
2022/12/14 01:47:24;;;;;;;22.90;13.25;;;-1.70;69.20;;;;;;5114341;28;20655;-69
2022/12/14 01:49:56;;;;;;;18.13;11.48;;;-1.70;69.20;;;;;;5114825;28;20229;-69
2022/12/14 01:52:26;;;;;;;17.90;12.52;;;-1.70;69.30;;;;;;5102034;28;20185;-69
2022/12/14 01:55:00;;;;;;;18.45;13.32;;;-1.70;69.00;;;;;;5094727;28;20192;-69
2022/12/14 01:57:34;;;;;;;18.52;12.35;;;-1.70;68.90;;;;;;5107123;28;20534;-69
2022/12/14 02:00:02;;;;;;;20.48;13.77;;;-1.60;68.90;;;;;;5114128;28;20222;-70
2022/12/14 02:02:31;;;;;;;16.67;12.07;;;-1.60;69.00;;;;;;5100569;28;20272;-70
2022/12/14 02:05:02;;;;;;;17.60;12.50;;;-1.60;68.70;;;;;;5094418;28;20625;-70
2022/12/14 02:07:30;;;;;;;19.02;12.43;;;-1.50;68.70;;;;;;5106360;28;20188;-70
2022/12/14 02:10:01;;;;;;;20.85;13.60;;;-1.60;68.80;;;;;;5114374;28;20193;-70
2022/12/14 02:12:34;;;;;;;19.23;10.90;;;-1.50;68.80;;;;;;5101208;28;20242;-70
2022/12/14 02:15:02;;;;;;;22.90;12.45;;;-1.50;68.90;;;;;;5094082;28;20215;-69
2022/12/14 02:17:29;;;;;;;18.40;12.52;;;-1.50;69.00;;;;;;5094894;28;20185;-70
2022/12/14 02:19:58;;;;;;;18.30;13.25;;;-1.60;69.00;;;;;;5094008;28;20189;-69
2022/12/14 02:22:51;;;;;;;17.50;13.45;;;-1.50;69.40;;;;;;5093823;28;20636;-70
2022/12/14 02:25:44;;;;;;;16.98;11.70;;;-1.50;69.50;;;;;;5049698;28;20213;-70
2022/12/14 02:28:48;;;;;;;15.32;11.50;;;-1.50;69.70;;;;;;5111482;28;20184;-70
2022/12/14 02:31:22;;;;;;;18.85;13.25;;;-1.50;70.00;;;;;;5109918;28;20248;-70
2022/12/14 02:33:54;;;;;;;19.05;12.00;;;-1.50;69.50;;;;;;5113784;28;20184;-70
2022/12/14 02:36:28;;;;;;;20.42;13.80;;;-1.60;70.50;;;;;;5104757;28;20196;-71
2022/12/14 02:39:07;;;;;;;21.92;13.38;;;-1.60;69.80;;;;;;5093547;28;20185;-70
2022/12/14 02:41:40;;;;;;;16.50;11.27;;;-1.70;69.70;;;;;;5103275;28;20212;-71
2022/12/14 02:44:20;;;;;;;22.40;13.18;;;-1.70;70.00;;;;;;5113896;28;20269;-70
2022/12/14 02:46:57;;;;;;;20.73;12.45;;;-1.80;69.70;;;;;;5102435;28;20224;-70
2022/12/14 02:49:43;;;;;;;24.05;12.98;;;-1.80;71.20;;;;;;5102770;28;20168;-70
2022/12/14 02:52:15;;;;;;;25.30;14.48;;;-1.80;70.80;;;;;;5113470;28;20192;-70
2022/12/14 02:54:49;;;;;;;21.45;12.80;;;-1.90;71.50;;;;;;5101644;28;20234;-70
2022/12/14 02:57:21;;;;;;;23.42;13.43;;;-1.80;71.60;;;;;;5093240;28;20189;-71
2022/12/14 02:59:52;;;;;;;27.52;14.07;;;-1.90;70.80;;;;;;5104099;28;20180;-71
2022/12/14 03:02:21;;;;;;;26.60;13.20;;;-1.80;70.50;;;;;;5113350;28;20613;-70
2022/12/14 03:04:48;;;;;;;19.23;12.93;;;-1.90;70.30;;;;;;5101945;28;20733;-70
2022/12/14 03:07:33;;;;;;;19.58;12.50;;;-2.00;70.70;;;;;;5093100;28;20242;-70
2022/12/14 03:10:06;;;;;;;19.83;13.20;;;-2.00;71.50;;;;;;5104679;28;20269;-70
2022/12/14 03:12:35;;;;;;;23.85;13.35;;;-2.00;72.50;;;;;;5095249;28;20199;-71
2022/12/14 03:15:04;;;;;;;18.83;13.23;;;-1.90;72.80;;;;;;5104344;28;20215;-70
2022/12/14 03:17:34;;;;;;;16.67;12.18;;;-1.90;72.60;;;;;;5111404;28;20192;-70
2022/12/14 03:20:08;;;;;;;18.20;12.20;;;-2.00;72.60;;;;;;5092493;28;20188;-70
2022/12/14 03:22:39;;;;;;;19.83;11.60;;;-1.90;72.80;;;;;;5109221;28;20190;-70
2022/12/14 03:25:12;;;;;;;22.52;14.23;;;-1.90;73.20;;;;;;5113117;28;20219;-70
2022/12/14 03:27:44;;;;;;;21.02;12.57;;;-1.90;73.70;;;;;;5096162;28;20185;-70
2022/12/14 03:30:15;;;;;;;24.88;12.73;;;-1.80;73.50;;;;;;5092848;28;20193;-70
2022/12/14 03:32:48;;;;;;;21.63;14.55;;;-1.80;73.00;;;;;;5110096;28;20193;-69
2022/12/14 03:35:19;;;;;;;16.58;11.20;;;-1.80;72.90;;;;;;5112812;28;20192;-70
2022/12/14 03:37:49;;;;;;;22.05;14.30;;;-1.70;73.10;;;;;;5112194;28;20195;-70
2022/12/14 03:40:18;;;;;;;21.67;12.07;;;-1.70;73.10;;;;;;5112965;28;20192;-69
2022/12/14 03:42:56;;;;;;;17.15;13.05;;;-1.60;73.10;;;;;;5094824;28;20189;-73
2022/12/14 03:45:30;;;;;;;21.40;13.15;;;-1.60;73.10;;;;;;5092411;28;20217;-69
2022/12/14 03:48:08;;;;;;;21.77;13.60;;;-1.60;73.20;;;;;;5110480;28;20537;-70
2022/12/14 03:50:39;;;;;;;19.10;12.13;;;-1.50;73.20;;;;;;5112506;28;20192;-71
2022/12/14 03:53:12;;;;;;;20.17;13.20;;;-1.50;73.30;;;;;;5111800;28;20188;-70
2022/12/14 03:55:46;;;;;;;18.92;13.85;;;-1.60;73.60;;;;;;5112898;28;20190;-70
2022/12/14 03:58:28;;;;;;;19.50;14.25;;;-1.50;73.50;;;;;;5092953;28;20196;-70
2022/12/14 04:01:02;;;;;;;18.73;12.70;;;-1.60;73.40;;;;;;5093621;28;20555;-70
2022/12/14 04:03:41;;;;;;;16.85;12.70;;;-1.50;73.60;;;;;;5112946;28;20179;-70
2022/12/14 04:06:13;;;;;;;20.17;14.65;;;-1.50;73.70;;;;;;5109645;28;20216;-71
2022/12/14 04:08:47;;;;;;;21.75;13.40;;;-1.50;73.70;;;;;;5092448;28;20177;-70
2022/12/14 04:19:45;;;;;;;22.40;14.23;;;-1.30;74.20;;;;;;5092643;28;20238;-70
2022/12/14 04:22:17;;;;;;;18.55;13.00;;;-1.30;74.60;;;;;;5104109;28;20195;-71
2022/12/14 04:27:38;;;;;;;20.05;13.35;;;-1.20;74.60;;;;;;5108903;28;20669;-70
2022/12/14 04:30:08;;;;;;;19.17;14.20;;;-1.30;74.20;;;;;;5102725;28;20185;-73
2022/12/14 04:32:39;;;;;;;18.85;13.32;;;-1.30;74.50;;;;;;5096128;28;20284;-69
2022/12/14 04:35:14;;;;;;;22.65;14.85;;;-1.30;75.10;;;;;;5109492;28;20193;-69
2022/12/14 04:37:48;;;;;;;24.17;14.90;;;-1.30;75.20;;;;;;5116594;28;20192;-70
2022/12/14 04:40:19;;;;;;;20.38;14.40;;;-1.30;75.40;;;;;;5102055;28;20181;-70
2022/12/14 04:42:51;;;;;;;21.10;13.38;;;-1.20;75.70;;;;;;5105113;28;20662;-70
2022/12/14 04:45:23;;;;;;;19.70;13.85;;;-1.20;75.80;;;;;;5116439;28;20209;-70
2022/12/14 04:47:59;;;;;;;23.90;14.05;;;-1.20;75.80;;;;;;5106649;28;20185;-70
2022/12/14 04:50:33;;;;;;;24.75;14.15;;;-1.20;75.90;;;;;;5103573;28;20206;-70
2022/12/14 04:53:08;;;;;;;19.85;12.90;;;-1.10;76.00;;;;;;5116474;28;20188;-69
2022/12/14 04:55:39;;;;;;;19.58;14.93;;;-1.00;76.00;;;;;;5115517;28;20218;-69
2022/12/14 04:58:13;;;;;;;19.35;14.75;;;-1.00;76.20;;;;;;5113614;28;20180;-70
2022/12/14 05:00:51;;;;;;;24.33;15.55;;;-0.90;76.60;;;;;;5113179;28;20519;-69
2022/12/14 05:03:25;;;;;;;18.05;14.05;;;-1.00;76.90;;;;;;5112297;28;20184;-70
2022/12/14 05:06:05;;;;;;;19.63;13.27;;;-0.90;77.40;;;;;;5055289;28;20210;-69
2022/12/14 05:08:49;;;;;;;21.40;14.20;;;-0.90;77.40;;;;;;5056333;28;20197;-69
2022/12/14 05:11:22;;;;;;;21.77;15.43;;;-0.90;77.50;;;;;;5055347;28;20194;-69
2022/12/14 05:13:50;;;;;;;19.95;14.05;;;-0.80;77.70;;;;;;5055444;28;20236;-70
2022/12/14 05:16:18;;;;;;;22.40;16.20;;;-0.80;77.90;;;;;;5055028;28;20197;-70
2022/12/14 05:18:46;;;;;;;23.90;14.27;;;-0.70;78.30;;;;;;5060024;28;20186;-69
2022/12/14 05:23:56;;;;;;;19.85;12.80;;;-0.70;78.40;;;;;;5068755;28;20186;-70
2022/12/14 05:26:23;;;;;;;17.58;12.50;;;-0.70;78.50;;;;;;5055124;28;20218;-70
2022/12/14 05:28:50;;;;;;;20.10;12.75;;;-0.70;78.60;;;;;;5060148;28;20187;-71
2022/12/14 05:31:17;;;;;;;21.20;14.45;;;-0.60;78.40;;;;;;5055200;28;20533;-71
2022/12/14 05:33:45;;;;;;;23.08;14.05;;;-0.60;78.40;;;;;;5055311;28;20209;-70
2022/12/14 05:36:12;;;;;;;22.05;14.88;;;-0.60;78.40;;;;;;5054858;28;20268;-70
2022/12/14 05:38:41;;;;;;;21.70;13.65;;;-0.60;77.90;;;;;;5066592;28;20182;-70
2022/12/14 05:41:08;;;;;;;20.20;13.90;;;-0.60;77.80;;;;;;5054871;28;20595;-70
2022/12/14 05:43:35;;;;;;;23.90;16.52;;;-0.60;77.80;;;;;;5062520;28;20182;-70
2022/12/14 05:46:04;;;;;;;24.27;14.95;;;-0.60;78.30;;;;;;5072923;28;20683;-70
2022/12/14 05:48:31;;;;;;;21.80;14.52;;;-0.60;78.20;;;;;;5064888;28;20185;-70
2022/12/14 05:51:04;;;;;;;27.42;14.27;;;-0.60;78.40;;;;;;5054654;28;20191;-70
2022/12/14 05:53:32;;;;;;;25.17;17.38;;;-0.50;78.90;;;;;;5057681;28;20217;-70
2022/12/14 05:56:00;;;;;;;20.25;15.52;;;-0.50;79.00;;;;;;5061600;28;20182;-71
2022/12/14 05:58:27;;;;;;;21.27;15.88;;;-0.50;79.20;;;;;;5054608;28;20532;-70
2022/12/14 06:00:59;;;;;;;18.85;14.07;;;-0.50;79.20;;;;;;5060046;28;20186;-71
2022/12/14 06:03:26;;;;;;;21.30;14.25;;;-0.40;79.40;;;;;;5065624;28;20182;-71
2022/12/14 06:05:53;;;;;;;22.80;15.38;;;-0.40;79.40;;;;;;5099555;28;20240;-71
2022/12/14 06:08:21;;;;;;;20.00;15.00;;;-0.40;79.30;;;;;;5114905;28;20245;-71
2022/12/14 06:10:48;;;;;;;22.17;15.80;;;-0.40;79.40;;;;;;5108840;28;20184;-71
2022/12/14 06:13:17;;;;;;;24.42;15.93;;;-0.40;79.70;;;;;;5114998;28;20812;-70
2022/12/14 06:15:44;;;;;;;24.35;15.88;;;-0.40;80.40;;;;;;5105814;28;20246;-70
2022/12/14 06:18:17;;;;;;;27.70;16.92;;;-0.40;80.60;;;;;;5094342;28;20246;-69
2022/12/14 06:20:44;;;;;;;20.30;15.85;;;-0.40;80.90;;;;;;5101462;28;20218;-70
2022/12/14 06:23:12;;;;;;;23.98;15.60;;;-0.40;81.40;;;;;;5114569;28;20188;-70
2022/12/14 06:25:39;;;;;;;22.75;14.43;;;-0.40;81.90;;;;;;5107522;28;20237;-70
2022/12/14 06:28:06;;;;;;;22.33;15.13;;;-0.40;82.20;;;;;;5094282;28;20192;-70
2022/12/14 06:30:35;;;;;;;22.67;13.75;;;-0.40;82.30;;;;;;5099171;28;20185;-71
2022/12/14 06:33:02;;;;;;;26.45;16.38;;;-0.30;82.50;;;;;;5114401;28;20185;-70
2022/12/14 06:35:29;;;;;;;20.95;15.15;;;-0.30;82.40;;;;;;5109497;28;20181;-70
2022/12/14 06:37:57;;;;;;;21.83;15.00;;;-0.20;82.50;;;;;;5095696;28;20199;-70
2022/12/14 06:40:29;;;;;;;24.85;17.58;;;-0.20;82.50;;;;;;5098264;28;20585;-71
2022/12/14 06:42:56;;;;;;;21.17;15.13;;;-0.10;82.50;;;;;;5106713;28;20268;-70
2022/12/14 06:45:23;;;;;;;24.27;15.40;;;-0.10;82.80;;;;;;5106381;28;20178;-71
2022/12/14 06:47:52;;;;;;;20.45;15.50;;;-0.10;82.90;;;;;;5110721;28;20869;-70
2022/12/14 06:50:20;;;;;;;19.08;14.77;;;0.00;83.00;;;;;;5106424;28;20594;-70
2022/12/14 06:52:49;;;;;;;23.02;15.82;;;0.00;83.00;;;;;;5110783;28;20189;-69
2022/12/14 06:55:19;;;;;;;22.63;14.40;;;0.10;83.00;;;;;;5112405;28;20988;-70
2022/12/14 06:57:46;;;;;;;20.65;15.35;;;0.10;83.00;;;;;;5103211;28;20181;-69
2022/12/14 07:00:14;;;;;;;24.15;16.17;;;0.20;83.20;;;;;;5103058;28;20579;-69
2022/12/14 07:02:44;;;;;;;24.90;16.92;;;0.20;83.40;;;;;;5101190;28;20196;-69
2022/12/14 07:05:12;;;;;;;17.38;14.75;;;0.20;83.50;;;;;;5100137;28;21145;-69
2022/12/14 07:07:40;;;;;;;24.10;16.27;;;0.20;83.60;;;;;;5110607;28;20223;-70
2022/12/14 07:10:09;;;;;;;21.77;15.50;;;0.30;83.50;;;;;;5094597;28;20188;-71
2022/12/14 07:12:36;;;;;;;19.90;14.75;;;0.30;83.20;;;;;;5102955;28;20451;-70
2022/12/14 07:15:04;;;;;;;31.00;19.00;;;0.30;83.20;;;;;;5112580;28;20188;-70
2022/12/14 07:17:31;;;;;;;22.98;16.50;;;0.30;83.50;;;;;;5112515;28;20581;-70
2022/12/14 07:19:58;;;;;;;23.05;14.63;;;0.30;84.10;;;;;;5113060;28;20223;-70
2022/12/14 07:22:28;;;;;;;21.35;16.48;;;0.30;84.90;;;;;;5097299;28;20632;-71
2022/12/14 07:24:55;;;;;;;27.05;16.65;;;0.30;85.60;;;;;;5101245;28;20188;-71
2022/12/14 07:27:23;;;;;;;26.38;17.60;;;0.30;86.40;;;;;;5112901;28;20247;-71
2022/12/14 07:29:51;;;;;;;28.45;17.60;;;0.30;86.50;;;;;;5111607;28;20184;-70
2022/12/14 07:32:18;;;;;;;23.73;17.17;;;0.30;86.20;;;;;;5100282;28;20219;-70
2022/12/14 07:34:46;;;;;;;21.38;15.52;;;0.30;86.10;;;;;;5092717;28;20608;-71
2022/12/14 07:37:14;;;;;;;24.50;17.30;;;0.40;86.10;;;;;;5091820;28;20561;-70
2022/12/14 07:39:49;;;;;;;22.60;16.10;;;0.40;85.60;;;;;;5105911;28;20668;-70
2022/12/14 07:42:16;;;;;;;19.35;15.40;;;0.40;85.20;;;;;;5092558;28;20189;-71
2022/12/14 07:44:43;;;;;;;23.27;15.55;;;0.50;85.00;;;;;;5092620;28;20189;-71
2022/12/14 07:47:10;;;;;;;25.38;17.20;;;0.50;85.00;;;;;;5098964;28;20208;-71
2022/12/14 07:49:38;;;;;;;25.17;15.80;;;0.50;85.10;;;;;;5099085;28;20212;-70
2022/12/14 07:52:05;;;;;;;24.33;17.67;;;0.60;85.40;;;;;;5098176;28;20191;-71
2022/12/14 07:54:40;;;;;;;22.33;16.13;;;0.60;85.40;;;;;;5108171;28;20544;-71
2022/12/14 07:57:09;;;;;;;25.35;17.77;;;0.70;85.50;;;;;;5113626;28;20187;-71
2022/12/14 07:59:36;;;;;;;23.40;17.73;;;0.70;85.40;;;;;;5115891;28;20196;-71
2022/12/14 08:02:03;;;;;;;21.17;14.27;;;0.70;85.20;;;;;;5117098;28;20199;-71
2022/12/14 08:04:30;;;;;;;19.42;15.52;;;0.80;85.30;;;;;;5117521;28;20258;-70
2022/12/14 08:06:57;;;;;;;25.27;16.13;;;0.80;85.40;;;;;;5117627;28;20308;-70
2022/12/14 08:09:24;;;;;;;23.40;15.93;;;0.80;85.40;;;;;;5117959;28;20241;-71
2022/12/14 08:11:51;;;;;;;23.95;16.50;;;0.90;85.60;;;;;;5117685;28;20241;-70
2022/12/14 08:14:20;;;;;;;21.30;15.10;;;0.90;85.50;;;;;;5117633;28;20213;-70
2022/12/14 08:16:49;;;;;;;22.55;16.35;;;1.00;85.20;;;;;;5117343;28;20234;-70
2022/12/14 08:19:16;;;;;;;21.58;15.82;;;1.00;84.80;;;;;;5117731;28;20184;-69
2022/12/14 08:21:44;;;;;;;23.38;16.48;;;1.00;84.70;;;;;;5117257;28;20662;-70
2022/12/14 08:24:12;;;;;;;23.35;16.20;;;1.00;84.80;;;;;;5106603;28;20283;-70
2022/12/14 08:26:39;;;;;;;26.10;18.35;;;1.00;84.50;;;;;;5112826;28;20225;-70
2022/12/14 08:29:13;;;;;;;21.92;15.63;;;1.10;84.50;;;;;;5112434;28;20230;-70
2022/12/14 08:31:41;;;;;;;23.80;17.27;;;1.10;84.70;;;;;;5114102;28;20372;-70
2022/12/14 08:34:09;;;;;;;29.58;18.60;;;1.00;84.90;;;;;;5112005;28;20526;-70
2022/12/14 08:36:36;;;;;;;24.02;18.02;;;1.00;85.60;;;;;;5113867;28;20200;-70
2022/12/14 08:39:06;;;;;;;25.33;16.88;;;1.00;86.00;;;;;;5114287;28;20193;-70
2022/12/14 08:41:33;;;;;;;27.23;17.55;;;1.10;86.00;;;;;;5114450;28;20188;-71
2022/12/14 08:44:02;;;;;;;26.90;18.20;;;1.20;86.00;;;;;;5114134;28;20205;-71
2022/12/14 08:46:31;;;;;;;21.10;16.77;;;1.30;86.00;;;;;;5105661;28;20221;-70
2022/12/14 08:49:00;;;;;;;27.10;18.00;;;1.30;85.70;;;;;;5095224;28;20189;-72
2022/12/14 08:51:28;;;;;;;26.13;18.92;;;1.40;85.50;;;;;;5095128;28;20242;-70
2022/12/14 08:53:57;;;;;;;18.30;14.40;;;1.40;84.80;;;;;;5103279;28;20192;-69
2022/12/14 08:56:28;;;;;;;26.33;18.35;;;1.40;84.70;;;;;;5115724;28;20600;-69
2022/12/14 08:58:55;;;;;;;25.08;18.33;;;1.40;84.80;;;;;;5111046;28;20196;-69
2022/12/14 09:01:23;;;;;;;22.10;16.67;;;1.50;85.10;;;;;;5099758;28;20204;-71
2022/12/14 09:03:50;;;;;;;24.55;16.10;;;1.50;84.90;;;;;;5095878;28;20237;-70
2022/12/14 09:06:21;;;;;;;21.02;17.65;;;1.50;85.10;;;;;;5099940;28;20532;-71
2022/12/14 09:08:48;;;;;;;31.90;18.13;;;1.60;85.20;;;;;;5096624;28;20201;-70
2022/12/14 09:11:16;;;;;;;23.38;17.95;;;1.60;85.90;;;;;;5096199;28;20204;-71
2022/12/14 09:13:45;;;;;;;29.58;21.65;;;1.80;86.60;;;;;;5100381;28;20409;-71
2022/12/14 09:16:15;;;;;;;25.92;19.08;;;1.90;86.30;;;;;;5100642;28;20197;-71
2022/12/14 09:18:42;;;;;;;30.33;20.75;;;2.00;86.10;;;;;;5097288;28;20588;-71
2022/12/14 09:21:09;;;;;;;22.17;16.25;;;2.00;85.60;;;;;;5100870;28;20681;-71
2022/12/14 09:23:39;;;;;;;24.45;17.95;;;2.00;85.70;;;;;;5096412;28;20197;-70
2022/12/14 09:26:10;;;;;;;28.05;17.48;;;2.10;85.50;;;;;;5097854;28;20200;-70
2022/12/14 09:28:40;;;;;;;23.35;16.67;;;2.20;85.50;;;;;;5102628;28;20193;-70
2022/12/14 09:31:10;;;;;;;23.27;16.70;;;2.20;85.20;;;;;;5097916;28;20227;-72
2022/12/14 09:33:37;;;;;;;24.25;18.73;;;2.30;85.10;;;;;;5099711;28;20517;-71
2022/12/14 09:36:06;;;;;;;24.58;18.65;;;2.30;85.10;;;;;;5108638;28;20196;-71
2022/12/14 09:38:35;;;;;;;26.35;18.08;;;2.40;84.90;;;;;;5107513;28;20843;-71
2022/12/14 09:41:06;;;;;;;24.42;18.30;;;2.40;84.50;;;;;;5102939;28;20193;-70
2022/12/14 09:43:42;;;;;;;25.52;16.95;;;2.50;84.10;;;;;;5104669;28;20242;-70
2022/12/14 09:46:24;;;;;;;24.95;18.80;;;2.50;83.70;;;;;;5103678;28;20193;-70
2022/12/14 09:48:54;;;;;;;24.67;17.80;;;2.50;83.90;;;;;;5103925;28;20637;-70
2022/12/14 09:51:22;;;;;;;24.08;19.10;;;2.60;84.40;;;;;;5108620;28;20200;-71
2022/12/14 09:53:56;;;;;;;22.17;18.05;;;2.80;84.70;;;;;;5107678;28;20253;-71
2022/12/14 09:56:24;;;;;;;23.10;18.60;;;2.90;84.60;;;;;;5105951;28;20300;-71
2022/12/14 09:58:55;;;;;;;20.63;16.70;;;3.00;84.10;;;;;;5105737;28;20277;-71
2022/12/14 10:01:40;;;;;;;26.70;17.92;;;3.10;83.60;;;;;;5107204;28;20196;-71
2022/12/14 10:04:23;;;;;;;27.83;20.20;;;3.20;83.00;;;;;;5108321;28;20232;-71
2022/12/14 10:06:56;;;;;;;26.40;18.60;;;3.30;82.50;;;;;;5106297;28;20220;-71
2022/12/14 10:09:33;;;;;;;21.83;16.52;;;3.30;81.50;;;;;;5107467;28;20188;-71
2022/12/14 10:12:09;;;;;;;22.25;18.80;;;3.30;81.10;;;;;;5108485;28;20201;-71
2022/12/14 10:14:52;;;;;;;22.30;18.63;;;3.40;80.90;;;;;;5108258;28;20249;-70
2022/12/14 10:17:28;;;;;;;27.55;19.05;;;3.40;80.70;;;;;;5109916;28;20245;-71
2022/12/14 10:19:58;;;;;;;26.15;18.55;;;3.40;80.50;;;;;;5107001;28;20192;-70
2022/12/14 10:22:31;;;;;;;23.17;17.13;;;3.40;80.50;;;;;;5107771;28;21777;-71
2022/12/14 10:25:05;;;;;;;20.65;17.60;;;3.40;80.70;;;;;;5108494;28;20634;-70
2022/12/14 10:27:35;;;;;;;31.55;20.63;;;3.30;80.70;;;;;;5108402;28;20226;-71
2022/12/14 10:30:06;;;;;;;27.13;19.42;;;3.30;80.20;;;;;;5109908;28;20264;-71
2022/12/14 10:32:35;;;;;;;24.08;17.52;;;3.30;80.20;;;;;;5109343;28;20196;-71
2022/12/14 10:35:13;;;;;;;25.85;19.30;;;3.20;79.80;;;;;;5109151;28;20192;-71
2022/12/14 10:37:44;;;;;;;23.85;18.90;;;3.10;79.80;;;;;;5109518;28;20643;-71
2022/12/14 10:40:20;;;;;;;25.90;20.42;;;2.90;80.40;;;;;;5109573;28;20288;-71
2022/12/14 10:43:01;;;;;;;26.42;20.20;;;2.80;81.30;;;;;;5110221;28;20722;-71
2022/12/14 10:45:35;;;;;;;25.55;18.83;;;2.80;82.50;;;;;;5108339;28;20526;-71
2022/12/14 10:48:22;;;;;;;25.77;18.52;;;2.70;81.50;;;;;;5110240;28;20223;-71
2022/12/14 10:50:57;;;;;;;31.00;23.80;;;2.70;81.90;;;;;;5111523;28;20543;-71
2022/12/14 10:53:31;;;;;;;29.67;24.25;;;2.50;83.10;;;;;;5106846;28;20223;-70
2022/12/14 10:56:01;;;;;;;33.10;22.20;;;2.50;83.60;;;;;;5109511;28;20248;-71
2022/12/14 10:58:31;;;;;;;33.72;24.02;;;2.50;84.50;;;;;;5111894;28;20188;-72
2022/12/14 11:00:58;;;;;;;30.45;21.25;;;2.50;85.10;;;;;;5112851;28;20208;-70
2022/12/14 11:03:27;;;;;;;29.02;22.48;;;2.50;86.40;;;;;;5111823;28;20556;-70
2022/12/14 11:05:59;;;;;;;35.53;23.65;;;2.60;86.90;;;;;;5109324;28;20589;-71
2022/12/14 11:08:42;;;;;;;32.50;22.98;;;2.60;86.90;;;;;;5096392;28;20224;-71
2022/12/14 11:11:13;;;;;;;34.70;23.48;;;2.70;86.60;;;;;;5093081;28;20189;-72
2022/12/14 11:13:50;;;;;;;36.92;22.38;;;2.80;87.10;;;;;;5097291;28;20222;-71
2022/12/14 11:16:33;;;;;;;26.20;21.10;;;3.00;87.90;;;;;;5112944;28;20286;-71
2022/12/14 11:19:02;;;;;;;28.67;21.55;;;3.30;88.30;;;;;;5105654;28;20199;-70
2022/12/14 11:21:33;;;;;;;28.00;21.73;;;3.60;86.60;;;;;;5098520;28;20189;-70
2022/12/14 11:24:01;;;;;;;27.00;21.52;;;3.90;86.90;;;;;;5095709;28;20689;-69
2022/12/14 11:26:33;;;;;;;29.25;22.27;;;4.10;84.50;;;;;;5095814;28;20238;-70
2022/12/14 11:29:03;;;;;;;28.27;21.38;;;4.10;83.10;;;;;;5095612;28;20221;-70
2022/12/14 11:31:36;;;;;;;31.38;19.92;;;4.20;83.30;;;;;;5099132;28;20567;-71
2022/12/14 11:34:05;;;;;;;30.58;23.20;;;4.10;83.00;;;;;;5095858;28;20589;-70
2022/12/14 11:36:35;;;;;;;27.23;20.55;;;4.20;82.70;;;;;;5096516;28;20189;-70
2022/12/14 11:39:05;;;;;;;27.58;21.92;;;4.20;82.60;;;;;;5102552;28;20215;-71
2022/12/14 11:41:37;;;;;;;25.92;23.15;;;4.20;82.20;;;;;;5098494;28;20614;-71
2022/12/14 11:44:21;;;;;;;28.45;21.00;;;4.20;82.00;;;;;;5101473;28;20283;-71
2022/12/14 11:46:53;;;;;;;26.50;21.00;;;4.20;82.00;;;;;;5110000;28;20196;-71
2022/12/14 11:52:11;;;;;;;26.30;19.98;;;4.00;81.30;;;;;;5105093;28;20192;-71
2022/12/14 11:54:40;;;;;;;29.63;20.42;;;3.90;81.50;;;;;;5101963;28;20185;-70
2022/12/14 11:57:15;;;;;;;32.08;21.13;;;3.90;81.90;;;;;;5102117;28;20235;-71
2022/12/14 11:59:47;;;;;;;29.90;22.00;;;3.70;82.80;;;;;;5103853;28;20200;-70
2022/12/14 12:02:20;;;;;;;31.85;25.20;;;3.60;84.00;;;;;;5106089;28;20663;-71
2022/12/14 12:07:37;;;;;;;32.15;23.15;;;3.40;85.60;;;;;;5103783;28;20282;-71
2022/12/14 12:10:15;;;;;;;34.95;27.52;;;3.40;86.60;;;;;;5102498;28;20193;-70
2022/12/14 12:12:49;;;;;;;29.23;22.65;;;3.40;87.70;;;;;;5104208;28;20646;-71
2022/12/14 12:15:21;;;;;;;26.92;19.65;;;3.20;89.40;;;;;;5103802;28;20311;-70
2022/12/14 12:17:53;;;;;;;26.55;21.40;;;3.20;90.00;;;;;;5104308;28;20234;-71
2022/12/14 12:20:30;;;;;;;28.95;22.25;;;3.30;90.00;;;;;;5104758;28;20192;-71
2022/12/14 12:23:04;;;;;;;29.23;21.83;;;3.40;90.30;;;;;;5103069;28;20590;-70
2022/12/14 12:25:34;;;;;;;29.73;22.08;;;3.50;90.40;;;;;;5103523;28;20214;-69
2022/12/14 12:28:10;;;;;;;30.20;22.23;;;3.70;90.50;;;;;;5103096;28;20247;-70
2022/12/14 12:30:43;;;;;;;26.98;21.70;;;4.00;90.60;;;;;;5104094;28;20242;-71
2022/12/14 12:33:24;;;;;;;27.73;21.33;;;4.20;90.20;;;;;;5102319;28;20219;-70
2022/12/14 12:35:55;;;;;;;25.95;21.40;;;4.40;90.00;;;;;;5107067;28;20698;-70
2022/12/14 12:38:44;;;;;;;25.33;22.02;;;4.60;89.30;;;;;;5105483;28;20193;-71
2022/12/14 12:41:25;;;;;;;29.58;22.85;;;4.70;88.00;;;;;;5110270;28;20255;-70
2022/12/14 12:43:55;;;;;;;28.27;24.52;;;4.80;87.30;;;;;;5104361;28;20232;-69
2022/12/14 12:46:29;;;;;;;32.30;23.02;;;4.90;87.10;;;;;;5111738;28;20192;-70
2022/12/14 12:49:02;;;;;;;30.80;24.60;;;4.90;86.30;;;;;;5114505;28;20230;-71
2022/12/14 12:51:32;;;;;;;32.45;23.67;;;5.00;86.40;;;;;;5110805;28;20204;-71
2022/12/14 12:54:02;;;;;;;28.15;21.98;;;5.00;86.00;;;;;;5111829;28;20192;-71
2022/12/14 12:56:37;;;;;;;26.17;20.40;;;5.00;85.60;;;;;;5114281;28;20223;-70
2022/12/14 12:59:05;;;;;;;25.02;19.02;;;5.00;85.30;;;;;;5108888;28;20200;-70
2022/12/14 13:01:38;;;;;;;24.60;20.80;;;5.00;85.20;;;;;;5095667;28;20635;-70
2022/12/14 13:04:10;;;;;;;25.67;19.75;;;5.10;85.40;;;;;;5107153;28;20277;-71
2022/12/14 13:06:41;;;;;;;26.75;19.92;;;5.20;85.50;;;;;;5110120;28;20205;-69
2022/12/14 13:09:17;;;;;;;27.25;20.58;;;5.30;85.30;;;;;;5105012;28;20224;-69